Time;durP1;ratioP1;P1;durP2;ratioP2;P2;SDS_P1;SDS_P2;PMS_P1;PMS_P2;Temp;Humidity;BMP_temperature;BMP_pressure;BME280_temperature;BME280_humidity;BME280_pressure;Samples;Min_cycle;Max_cycle;Signal;HPM_P1;HPM_P2
2024/03/09 00:01:45;;;;;;;32.78;18.98;;;7.60;99.90;;;;;;4146851;28;20066;-65
2024/03/09 00:03:46;;;;;;;34.55;19.63;;;7.60;99.90;;;;;;4152428;28;20084;-66
2024/03/09 00:05:46;;;;;;;34.55;19.20;;;7.60;99.90;;;;;;4133958;28;20518;-66
2024/03/09 00:07:48;;;;;;;34.47;20.40;;;7.60;99.90;;;;;;4153634;28;20044;-66
2024/03/09 00:09:48;;;;;;;34.70;20.33;;;7.50;99.90;;;;;;4147894;28;20424;-66
2024/03/09 00:11:49;;;;;;;35.85;21.50;;;7.60;99.90;;;;;;4148760;28;20037;-66
2024/03/09 00:13:49;;;;;;;35.10;21.35;;;7.50;99.90;;;;;;4154075;28;20366;-66
2024/03/09 00:15:51;;;;;;;44.38;23.05;;;7.50;99.90;;;;;;4158521;28;20425;-66
2024/03/09 00:17:53;;;;;;;35.40;20.80;;;7.40;99.90;;;;;;4150834;28;20083;-66
2024/03/09 00:19:58;;;;;;;35.17;20.67;;;7.40;99.90;;;;;;4148171;28;20060;-65
2024/03/09 00:21:58;;;;;;;34.13;20.52;;;7.40;99.90;;;;;;4147841;28;20140;-66
2024/03/09 00:23:59;;;;;;;34.40;20.98;;;7.40;99.90;;;;;;4148023;28;20038;-66
2024/03/09 00:25:59;;;;;;;37.10;21.90;;;7.30;99.90;;;;;;4153380;28;20029;-66
2024/03/09 00:28:00;;;;;;;38.35;22.88;;;7.30;99.90;;;;;;4154876;28;20038;-66
2024/03/09 00:30:02;;;;;;;37.78;21.98;;;7.30;99.90;;;;;;4150366;28;20407;-66
2024/03/09 00:32:03;;;;;;;38.53;21.43;;;7.30;99.90;;;;;;4142097;28;20478;-66
2024/03/09 00:34:04;;;;;;;38.85;21.73;;;7.30;99.90;;;;;;4154361;28;20041;-66
2024/03/09 00:36:06;;;;;;;37.13;21.05;;;7.30;99.90;;;;;;4156794;28;20078;-66
2024/03/09 00:38:07;;;;;;;38.17;21.27;;;7.20;99.90;;;;;;4153902;28;20541;-66
2024/03/09 00:40:09;;;;;;;33.88;19.85;;;7.20;99.90;;;;;;4149588;28;20041;-66
2024/03/09 00:42:14;;;;;;;36.22;21.55;;;7.20;99.90;;;;;;4153303;28;20414;-66
2024/03/09 00:44:14;;;;;;;35.28;20.70;;;7.10;99.90;;;;;;4153221;28;20068;-70
2024/03/09 00:46:16;;;;;;;41.30;22.38;;;7.10;99.90;;;;;;4150844;28;20026;-70
2024/03/09 00:48:19;;;;;;;35.35;20.70;;;7.10;99.90;;;;;;4152978;28;20045;-70
2024/03/09 00:50:21;;;;;;;39.33;21.85;;;7.10;99.90;;;;;;4150195;28;20037;-70
2024/03/09 00:52:25;;;;;;;36.42;20.65;;;7.00;99.90;;;;;;4155290;28;20045;-70
2024/03/09 00:54:26;;;;;;;40.00;22.33;;;7.00;99.90;;;;;;4148618;28;23125;-71
2024/03/09 00:56:29;;;;;;;37.92;21.92;;;7.00;99.90;;;;;;4144161;28;20042;-70
2024/03/09 00:58:30;;;;;;;41.28;22.52;;;6.90;99.90;;;;;;4148108;28;20037;-70
2024/03/09 01:00:30;;;;;;;35.20;21.20;;;6.80;99.90;;;;;;4153537;28;20029;-70
2024/03/09 01:02:31;;;;;;;39.63;22.67;;;6.80;99.90;;;;;;4149361;28;20029;-71
2024/03/09 01:04:32;;;;;;;38.75;22.20;;;6.80;99.90;;;;;;4157094;28;20057;-70
2024/03/09 01:06:32;;;;;;;40.78;22.88;;;6.80;99.90;;;;;;4152622;28;20138;-70
2024/03/09 01:08:34;;;;;;;43.75;23.58;;;6.80;99.90;;;;;;4154695;28;20041;-69
2024/03/09 01:10:35;;;;;;;40.92;22.90;;;6.60;99.90;;;;;;4143220;28;20450;-70
2024/03/09 01:12:36;;;;;;;39.70;22.90;;;6.60;99.90;;;;;;4146318;28;20034;-72
2024/03/09 01:14:37;;;;;;;39.67;22.92;;;6.60;99.90;;;;;;4157719;28;20048;-68
2024/03/09 01:16:37;;;;;;;39.42;23.20;;;6.50;99.90;;;;;;4145958;28;20378;-72
2024/03/09 01:18:38;;;;;;;42.10;23.85;;;6.50;99.90;;;;;;4153864;28;20033;-69
2024/03/09 01:20:39;;;;;;;39.42;21.70;;;6.50;99.90;;;;;;4146454;28;20034;-70
2024/03/09 01:22:43;;;;;;;36.92;21.20;;;6.50;99.90;;;;;;4147415;28;20034;-70
2024/03/09 01:24:44;;;;;;;33.50;19.02;;;6.50;99.90;;;;;;4147784;28;20045;-70
2024/03/09 01:26:45;;;;;;;35.60;20.33;;;6.60;99.90;;;;;;4156299;28;20022;-68
2024/03/09 01:28:45;;;;;;;37.83;21.63;;;6.60;99.90;;;;;;4147993;28;20046;-70
2024/03/09 01:30:46;;;;;;;37.45;21.63;;;6.60;99.90;;;;;;4151977;28;20041;-70
2024/03/09 01:32:49;;;;;;;35.47;20.08;;;6.60;99.90;;;;;;4152838;28;20033;-70
2024/03/09 01:34:51;;;;;;;33.65;20.10;;;6.70;99.90;;;;;;4158525;28;20030;-70
2024/03/09 01:36:51;;;;;;;34.72;19.10;;;6.70;99.90;;;;;;4155661;28;20041;-71
2024/03/09 01:38:55;;;;;;;36.28;20.70;;;6.70;99.90;;;;;;4153210;28;20044;-70
2024/03/09 01:40:56;;;;;;;39.47;21.83;;;6.70;99.90;;;;;;4151026;28;20549;-69
2024/03/09 01:42:56;;;;;;;34.75;20.90;;;6.60;99.90;;;;;;4153433;28;20112;-70
2024/03/09 01:44:58;;;;;;;35.17;20.98;;;6.70;99.90;;;;;;4156384;28;20048;-70
2024/03/09 01:47:01;;;;;;;34.78;19.88;;;6.70;99.90;;;;;;4160346;28;20470;-70
2024/03/09 01:49:02;;;;;;;36.65;20.63;;;6.80;99.90;;;;;;4156929;28;20359;-70
2024/03/09 01:51:04;;;;;;;36.78;20.80;;;6.80;99.90;;;;;;4156835;28;20040;-70
2024/03/09 01:53:07;;;;;;;35.67;20.42;;;6.80;99.90;;;;;;4154455;28;20041;-70
2024/03/09 01:55:09;;;;;;;36.67;21.40;;;6.70;99.90;;;;;;4154701;28;20030;-62
2024/03/09 01:57:13;;;;;;;38.83;21.33;;;6.70;99.90;;;;;;4157952;28;20722;-59
2024/03/09 01:59:15;;;;;;;33.85;19.70;;;6.70;99.90;;;;;;4154188;28;20049;-58
2024/03/09 02:01:22;;;;;;;31.67;18.90;;;6.70;99.90;;;;;;4153127;28;20506;-58
2024/03/09 02:03:23;;;;;;;31.67;18.55;;;6.80;99.90;;;;;;4153601;28;20069;-58
2024/03/09 02:05:24;;;;;;;31.33;18.75;;;6.80;99.90;;;;;;4159458;28;20041;-60
2024/03/09 02:07:25;;;;;;;37.93;20.70;;;6.70;99.90;;;;;;4159261;28;20053;-59
2024/03/09 02:09:26;;;;;;;30.83;19.05;;;6.70;99.90;;;;;;4151452;28;20117;-58
2024/03/09 02:11:30;;;;;;;35.65;21.05;;;6.70;99.90;;;;;;4152364;28;20541;-58
2024/03/09 02:13:31;;;;;;;37.38;20.42;;;6.50;99.90;;;;;;4151016;28;20478;-58
2024/03/09 02:15:33;;;;;;;33.28;20.10;;;6.60;99.90;;;;;;4151566;28;20312;-58
2024/03/09 02:17:33;;;;;;;34.38;19.25;;;6.60;99.90;;;;;;4159801;28;20072;-58
2024/03/09 02:19:41;;;;;;;34.58;19.50;;;6.60;99.90;;;;;;4157082;28;20044;-58
2024/03/09 02:21:48;;;;;;;32.60;19.58;;;6.60;99.90;;;;;;4149746;28;20097;-58
2024/03/09 02:23:51;;;;;;;36.58;19.73;;;6.60;99.90;;;;;;4149360;28;20038;-58
2024/03/09 02:25:51;;;;;;;35.08;20.52;;;6.60;99.90;;;;;;4147165;28;20030;-58
2024/03/09 02:27:52;;;;;;;37.67;19.83;;;6.60;99.90;;;;;;4153510;28;20035;-58
2024/03/09 02:29:53;;;;;;;36.28;20.17;;;6.60;99.90;;;;;;4149917;28;20117;-58
2024/03/09 02:31:55;;;;;;;33.70;19.73;;;6.70;99.90;;;;;;4148705;28;20132;-60
2024/03/09 02:33:56;;;;;;;38.90;21.70;;;6.70;99.90;;;;;;4157387;28;20474;-58
2024/03/09 02:35:57;;;;;;;36.40;20.92;;;6.50;99.90;;;;;;4153387;28;20117;-58
2024/03/09 02:37:57;;;;;;;37.25;20.38;;;6.60;99.90;;;;;;4156872;28;22721;-58
2024/03/09 02:39:58;;;;;;;34.95;20.05;;;6.50;99.90;;;;;;4158619;28;20041;-58
2024/03/09 02:41:58;;;;;;;34.65;20.27;;;6.50;99.90;;;;;;4158348;28;20386;-58
2024/03/09 02:43:59;;;;;;;34.33;20.27;;;6.50;99.90;;;;;;4158707;28;20033;-58
2024/03/09 02:46:01;;;;;;;34.03;19.33;;;6.50;99.90;;;;;;4151910;28;20498;-58
2024/03/09 02:48:02;;;;;;;35.30;20.02;;;6.50;99.90;;;;;;4154304;28;20123;-58
2024/03/09 02:50:03;;;;;;;35.83;20.20;;;6.40;99.90;;;;;;4153915;28;20534;-59
2024/03/09 02:52:04;;;;;;;33.55;20.27;;;6.50;99.90;;;;;;4142216;28;20042;-58
2024/03/09 02:54:05;;;;;;;33.22;19.85;;;6.40;99.90;;;;;;4147615;28;20479;-58
2024/03/09 02:56:16;;;;;;;36.10;21.00;;;6.50;99.90;;;;;;4150848;28;20038;-58
2024/03/09 02:58:17;;;;;;;37.75;20.30;;;6.40;99.90;;;;;;4138932;28;20032;-58
2024/03/09 03:00:23;;;;;;;32.63;19.15;;;6.30;99.90;;;;;;4143032;28;20042;-58
2024/03/09 03:04:43;;;;;;;32.88;19.60;;;6.30;99.90;;;;;;4144499;28;20037;-66
2024/03/09 03:06:43;;;;;;;34.42;19.95;;;6.30;99.90;;;;;;4143149;28;20405;-66
2024/03/09 03:08:48;;;;;;;35.65;20.00;;;6.20;99.90;;;;;;4143134;28;20082;-66
2024/03/09 03:10:50;;;;;;;36.75;20.75;;;6.20;99.90;;;;;;4141963;28;20141;-66
2024/03/09 03:12:50;;;;;;;32.25;19.85;;;6.20;99.90;;;;;;4144709;28;20105;-66
2024/03/09 03:14:51;;;;;;;34.30;19.02;;;6.20;99.90;;;;;;4147760;28;20029;-66
2024/03/09 03:16:54;;;;;;;33.72;18.75;;;6.10;99.90;;;;;;4148933;28;20030;-66
2024/03/09 03:19:06;;;;;;;32.80;19.73;;;6.10;99.90;;;;;;4149329;28;20367;-66
2024/03/09 03:21:06;;;;;;;32.65;19.27;;;6.10;99.90;;;;;;4153055;28;20500;-66
2024/03/09 03:23:07;;;;;;;34.85;20.17;;;6.10;99.90;;;;;;4151782;28;20041;-67
2024/03/09 03:25:11;;;;;;;35.15;19.52;;;6.00;99.90;;;;;;4155260;28;20030;-65
2024/03/09 03:27:11;;;;;;;36.78;21.30;;;6.00;99.90;;;;;;4151588;28;20407;-66
2024/03/09 03:29:12;;;;;;;36.55;21.15;;;5.90;99.90;;;;;;4150487;28;20041;-66
2024/03/09 03:31:17;;;;;;;38.92;21.63;;;5.80;99.90;;;;;;4148529;28;20156;-66
2024/03/09 03:33:20;;;;;;;34.55;19.70;;;5.70;99.90;;;;;;4158824;28;20109;-68
2024/03/09 03:35:24;;;;;;;37.70;21.25;;;5.70;99.90;;;;;;4149007;28;20033;-67
2024/03/09 03:37:25;;;;;;;38.30;20.45;;;5.70;99.90;;;;;;4148997;28;20486;-65
2024/03/09 03:39:27;;;;;;;32.53;17.65;;;5.70;99.90;;;;;;4152516;28;20075;-65
2024/03/09 03:41:27;;;;;;;32.45;18.45;;;5.70;99.90;;;;;;4150699;28;20034;-68
2024/03/09 03:43:28;;;;;;;34.65;18.88;;;5.70;99.90;;;;;;4156222;28;20038;-68
2024/03/09 03:45:29;;;;;;;32.40;18.48;;;5.70;99.90;;;;;;4146660;28;20038;-68
2024/03/09 03:47:29;;;;;;;34.88;19.05;;;5.80;99.90;;;;;;4153510;28;20474;-66
2024/03/09 03:49:31;;;;;;;31.13;18.25;;;5.80;99.90;;;;;;4155242;28;20500;-66
2024/03/09 03:51:31;;;;;;;27.33;16.35;;;5.80;99.90;;;;;;4150165;28;20175;-66
2024/03/09 03:53:32;;;;;;;34.78;19.67;;;5.80;99.90;;;;;;4146067;28;20041;-66
2024/03/09 03:55:33;;;;;;;30.02;18.35;;;5.80;99.90;;;;;;4148247;28;20057;-66
2024/03/09 03:57:34;;;;;;;34.65;18.60;;;5.80;99.90;;;;;;4150009;28;20083;-66
2024/03/09 03:59:34;;;;;;;35.38;19.50;;;5.80;99.90;;;;;;4154686;28;20042;-68
2024/03/09 04:01:35;;;;;;;34.53;18.88;;;5.80;99.90;;;;;;4153289;28;20034;-68
2024/03/09 04:03:37;;;;;;;34.45;19.20;;;5.80;99.90;;;;;;4155215;28;20087;-67
2024/03/09 04:05:38;;;;;;;33.28;19.00;;;5.80;99.90;;;;;;4148899;28;20033;-66
2024/03/09 04:07:40;;;;;;;30.13;17.75;;;5.80;99.90;;;;;;4157743;28;20054;-66
2024/03/09 04:09:41;;;;;;;32.85;18.10;;;5.80;99.90;;;;;;4144918;28;20080;-69
2024/03/09 04:11:43;;;;;;;32.20;17.85;;;5.80;99.90;;;;;;4151432;28;20045;-67
2024/03/09 04:13:44;;;;;;;29.92;17.30;;;5.80;99.90;;;;;;4151197;28;20069;-66
2024/03/09 04:15:45;;;;;;;32.00;17.35;;;5.80;99.90;;;;;;4157862;28;20533;-66
2024/03/09 04:17:45;;;;;;;29.98;17.85;;;5.80;99.90;;;;;;4148378;28;20052;-66
2024/03/09 04:19:47;;;;;;;30.90;18.13;;;5.90;99.90;;;;;;4151834;28;20478;-66
2024/03/09 04:21:47;;;;;;;28.52;16.58;;;5.90;99.90;;;;;;4146357;28;20460;-66
2024/03/09 04:23:49;;;;;;;31.80;17.70;;;6.00;99.90;;;;;;4152437;28;20125;-57
2024/03/09 04:25:50;;;;;;;32.08;17.20;;;6.00;99.90;;;;;;4148435;28;20044;-58
2024/03/09 04:27:52;;;;;;;29.67;16.85;;;6.00;99.90;;;;;;4148501;28;20382;-57
2024/03/09 04:29:53;;;;;;;28.13;16.42;;;6.00;99.90;;;;;;4152210;28;20037;-57
2024/03/09 04:31:54;;;;;;;29.15;16.75;;;6.00;99.90;;;;;;4149268;28;20513;-57
2024/03/09 04:33:54;;;;;;;27.65;16.80;;;6.00;99.90;;;;;;4150302;28;20037;-57
2024/03/09 04:35:55;;;;;;;28.92;16.60;;;6.10;99.90;;;;;;4157062;28;20076;-57
2024/03/09 04:37:55;;;;;;;27.27;15.57;;;6.20;99.90;;;;;;4144462;28;20064;-60
2024/03/09 04:39:58;;;;;;;27.10;16.73;;;6.20;99.90;;;;;;4152988;28;20378;-58
2024/03/09 04:41:59;;;;;;;25.35;15.25;;;6.20;99.90;;;;;;4147987;28;20080;-57
2024/03/09 04:44:00;;;;;;;26.92;16.33;;;6.20;99.90;;;;;;4153283;28;20087;-57
2024/03/09 04:46:01;;;;;;;25.52;14.90;;;6.20;99.90;;;;;;4142267;28;20074;-57
2024/03/09 04:48:03;;;;;;;28.92;16.10;;;6.30;99.90;;;;;;4150135;28;20482;-58
2024/03/09 04:50:05;;;;;;;;;;;6.30;99.90;;;;;;4152090;28;20171;-58
2024/03/09 04:52:05;;;;;;;25.95;14.48;;;6.30;99.90;;;;;;4152961;28;19924;-57
2024/03/09 04:54:06;;;;;;;27.48;15.30;;;6.30;99.90;;;;;;4153784;28;20034;-57
2024/03/09 04:56:06;;;;;;;27.25;15.02;;;6.30;99.90;;;;;;4148327;28;20116;-57
2024/03/09 04:58:18;;;;;;;27.85;16.02;;;6.30;99.90;;;;;;4149937;28;20038;-57
2024/03/09 05:00:18;;;;;;;27.48;15.13;;;6.30;99.90;;;;;;4148341;28;20041;-57
2024/03/09 05:02:19;;;;;;;32.13;17.48;;;6.40;99.90;;;;;;4152179;28;20029;-57
2024/03/09 05:04:20;;;;;;;24.92;14.73;;;6.40;99.90;;;;;;4156327;28;20025;-57
2024/03/09 05:06:21;;;;;;;28.08;16.30;;;6.40;99.90;;;;;;4151280;28;20048;-65
2024/03/09 05:08:21;;;;;;;24.80;14.45;;;6.40;99.90;;;;;;4150357;28;20038;-64
2024/03/09 05:10:23;;;;;;;28.45;14.38;;;6.40;99.90;;;;;;4153334;28;20574;-65
2024/03/09 05:12:23;;;;;;;28.17;16.13;;;6.40;99.90;;;;;;4156298;28;20033;-64
2024/03/09 05:14:24;;;;;;;26.55;14.98;;;6.50;99.90;;;;;;4156733;28;20117;-64
2024/03/09 05:16:25;;;;;;;25.90;14.90;;;6.50;99.90;;;;;;4157791;28;20113;-64
2024/03/09 05:18:25;;;;;;;27.65;14.98;;;6.50;99.90;;;;;;4157621;28;20440;-62
2024/03/09 05:20:29;;;;;;;23.60;13.82;;;6.50;99.90;;;;;;4154105;28;20108;-63
2024/03/09 05:22:30;;;;;;;23.42;13.95;;;6.50;99.90;;;;;;4150115;28;20038;-62
2024/03/09 05:24:31;;;;;;;27.08;16.42;;;6.60;99.90;;;;;;4156186;28;20029;-61
2024/03/09 05:26:32;;;;;;;27.02;14.88;;;6.60;99.90;;;;;;4157810;28;20387;-62
2024/03/09 05:28:33;;;;;;;27.15;15.50;;;6.60;99.90;;;;;;4154670;28;20098;-62
2024/03/09 05:30:33;;;;;;;26.38;15.23;;;6.70;99.90;;;;;;4156866;28;20506;-62
2024/03/09 05:32:34;;;;;;;27.40;15.88;;;6.60;99.90;;;;;;4150787;28;20371;-62
2024/03/09 05:34:37;;;;;;;23.15;13.85;;;6.60;99.90;;;;;;4157300;28;20041;-62
2024/03/09 05:36:37;;;;;;;;;;;6.60;99.90;;;;;;4154482;28;20429;-62
2024/03/09 05:38:39;;;;;;;23.20;13.90;;;6.60;99.90;;;;;;4151549;28;19917;-62
2024/03/09 05:40:41;;;;;;;27.17;15.05;;;6.60;99.90;;;;;;4155369;28;20038;-62
2024/03/09 05:42:49;;;;;;;26.63;15.32;;;6.60;99.90;;;;;;4153322;28;20038;-62
2024/03/09 05:44:49;;;;;;;25.35;14.60;;;6.60;99.90;;;;;;4159110;28;20040;-62
2024/03/09 05:46:50;;;;;;;27.75;16.55;;;6.60;99.90;;;;;;4150730;28;20038;-62
2024/03/09 05:48:50;;;;;;;25.85;15.13;;;6.60;99.90;;;;;;4157127;28;20111;-62
2024/03/09 05:50:51;;;;;;;29.58;16.42;;;6.60;99.90;;;;;;4153365;28;20056;-62
2024/03/09 05:52:52;;;;;;;27.48;15.43;;;6.60;99.90;;;;;;4155437;28;20113;-65
2024/03/09 05:54:52;;;;;;;30.10;17.13;;;6.60;99.90;;;;;;4156097;28;20444;-65
2024/03/09 05:56:53;;;;;;;27.27;15.88;;;6.60;99.90;;;;;;4154331;28;20041;-65
2024/03/09 05:58:53;;;;;;;28.95;17.35;;;6.60;99.90;;;;;;4158478;28;20052;-65
2024/03/09 06:00:54;;;;;;;31.67;17.63;;;6.70;99.90;;;;;;4156853;28;20391;-65
2024/03/09 06:02:55;;;;;;;30.50;17.13;;;6.70;99.90;;;;;;4157375;28;20088;-65
2024/03/09 06:04:56;;;;;;;30.85;17.42;;;6.60;99.90;;;;;;4154458;28;20096;-65
2024/03/09 06:06:56;;;;;;;28.75;16.30;;;6.60;99.90;;;;;;4155270;28;20050;-65
2024/03/09 06:08:57;;;;;;;29.85;16.10;;;6.60;99.90;;;;;;4156556;28;20038;-65
2024/03/09 06:10:58;;;;;;;24.73;14.50;;;6.60;99.90;;;;;;4156691;28;20162;-65
2024/03/09 06:12:58;;;;;;;29.63;16.63;;;6.70;99.90;;;;;;4158119;28;20038;-65
2024/03/09 06:14:59;;;;;;;26.80;14.85;;;6.70;99.90;;;;;;4156006;28;20038;-65
2024/03/09 06:16:59;;;;;;;27.20;15.48;;;6.70;99.90;;;;;;4155077;28;20099;-65
2024/03/09 06:19:00;;;;;;;25.70;15.15;;;6.70;99.90;;;;;;4153459;28;20033;-65
2024/03/09 06:21:01;;;;;;;28.38;16.73;;;6.70;99.90;;;;;;4156135;28;20041;-65
2024/03/09 06:23:02;;;;;;;29.73;16.80;;;6.70;99.90;;;;;;4152801;28;20107;-65
2024/03/09 06:25:03;;;;;;;28.05;16.85;;;6.70;99.90;;;;;;4154388;28;20125;-66
2024/03/09 06:27:05;;;;;;;25.65;15.18;;;6.70;99.90;;;;;;4148301;28;20061;-65
2024/03/09 06:29:06;;;;;;;25.65;15.32;;;6.80;99.90;;;;;;4149117;28;20042;-65
2024/03/09 06:31:08;;;;;;;25.08;15.23;;;6.80;99.90;;;;;;4151950;28;20048;-65
2024/03/09 06:33:09;;;;;;;30.92;16.48;;;6.80;99.90;;;;;;4155802;28;20037;-65
2024/03/09 06:35:10;;;;;;;28.20;16.08;;;6.80;99.90;;;;;;4147901;28;20037;-67
2024/03/09 06:37:11;;;;;;;32.58;18.00;;;6.80;99.90;;;;;;4150954;28;20487;-65
2024/03/09 06:39:11;;;;;;;33.72;18.73;;;6.80;99.90;;;;;;4155906;28;20069;-65
2024/03/09 06:41:12;;;;;;;32.15;17.65;;;6.70;99.90;;;;;;4157933;28;20490;-65
2024/03/09 06:43:13;;;;;;;30.65;18.50;;;6.70;99.90;;;;;;4146512;28;20033;-65
2024/03/09 06:45:13;;;;;;;28.20;16.95;;;6.80;99.90;;;;;;4156395;28;20047;-65
2024/03/09 06:47:15;;;;;;;29.27;16.38;;;6.80;99.90;;;;;;4153920;28;20548;-65
2024/03/09 06:49:17;;;;;;;28.67;17.00;;;6.80;99.90;;;;;;4151427;28;20555;-65
2024/03/09 06:51:20;;;;;;;;;;;6.80;99.90;;;;;;4163193;28;20053;-66
2024/03/09 06:53:25;;;;;;;27.05;15.55;;;6.90;99.90;;;;;;4152934;28;19941;-65
2024/03/09 06:55:26;;;;;;;25.75;15.90;;;6.90;99.90;;;;;;4152354;28;20382;-65
2024/03/09 06:57:26;;;;;;;34.65;17.85;;;6.90;99.90;;;;;;4150484;28;20033;-65
2024/03/09 06:59:27;;;;;;;29.48;17.50;;;6.90;99.90;;;;;;4136307;28;20111;-62
2024/03/09 07:01:30;;;;;;;28.30;16.67;;;6.90;99.90;;;;;;4138330;28;20084;-62
2024/03/09 07:03:30;;;;;;;30.02;15.95;;;6.90;99.90;;;;;;4142713;28;20048;-62
2024/03/09 07:05:31;;;;;;;28.67;17.27;;;6.90;99.90;;;;;;4143468;28;20505;-62
2024/03/09 07:07:32;;;;;;;28.90;16.20;;;6.90;99.90;;;;;;4142342;28;20049;-62
2024/03/09 07:09:32;;;;;;;27.35;15.85;;;7.00;99.90;;;;;;4143739;28;20088;-62
2024/03/09 07:11:33;;;;;;;29.77;16.83;;;6.90;99.90;;;;;;4141421;28;20327;-62
2024/03/09 07:13:34;;;;;;;26.88;15.48;;;7.00;99.90;;;;;;4143097;28;20042;-61
2024/03/09 07:15:36;;;;;;;30.08;16.38;;;7.00;99.90;;;;;;4129025;28;20391;-60
2024/03/09 07:17:36;;;;;;;27.70;16.45;;;6.90;99.90;;;;;;4156158;28;20559;-60
2024/03/09 07:19:37;;;;;;;27.00;16.23;;;6.90;99.90;;;;;;4138659;28;20109;-60
2024/03/09 07:21:37;;;;;;;25.05;15.10;;;7.00;99.90;;;;;;4143505;28;20033;-60
2024/03/09 07:23:38;;;;;;;26.08;14.80;;;7.10;99.90;;;;;;4146918;28;20061;-60
2024/03/09 07:25:38;;;;;;;26.17;15.10;;;7.10;99.90;;;;;;4143265;28;20570;-60
2024/03/09 07:27:40;;;;;;;28.15;15.80;;;7.10;99.90;;;;;;4143609;28;20172;-60
2024/03/09 07:29:44;;;;;;;28.40;15.52;;;7.10;99.90;;;;;;4149883;28;20060;-60
2024/03/09 07:31:44;;;;;;;29.90;16.17;;;7.20;99.90;;;;;;4152613;28;20050;-60
2024/03/09 07:33:45;;;;;;;30.20;16.90;;;7.30;99.90;;;;;;4155663;28;20391;-60
2024/03/09 07:35:46;;;;;;;29.83;16.58;;;7.30;99.90;;;;;;4155442;28;20120;-60
2024/03/09 07:38:00;;;;;;;23.27;15.02;;;7.40;99.90;;;;;;4157029;28;20441;-60
2024/03/09 07:40:01;;;;;;;24.70;14.77;;;7.60;99.90;;;;;;4131810;28;20061;-61
2024/03/09 07:42:02;;;;;;;24.08;14.50;;;8.10;99.90;;;;;;4146349;28;20500;-60
2024/03/09 07:44:03;;;;;;;28.55;14.98;;;8.70;99.90;;;;;;4147187;28;20242;-61
2024/03/09 07:46:04;;;;;;;23.88;14.77;;;9.00;99.90;;;;;;4155000;28;20033;-61
2024/03/09 07:48:05;;;;;;;25.77;14.65;;;9.50;99.90;;;;;;4155441;28;20029;-60
2024/03/09 07:50:13;;;;;;;23.45;13.40;;;9.40;99.90;;;;;;4149826;28;20053;-62
2024/03/09 07:52:14;;;;;;;24.00;14.27;;;9.50;99.90;;;;;;4148431;28;20049;-60
2024/03/09 07:54:15;;;;;;;19.45;12.68;;;9.80;99.90;;;;;;4146085;28;20537;-60
2024/03/09 07:56:16;;;;;;;19.90;12.27;;;10.30;99.90;;;;;;4149733;28;20782;-60
2024/03/09 07:58:17;;;;;;;23.13;13.05;;;10.60;99.90;;;;;;4155283;28;20030;-60
2024/03/09 08:00:22;;;;;;;18.60;11.98;;;10.90;99.90;;;;;;4153706;28;20041;-61
2024/03/09 08:02:23;;;;;;;19.13;12.20;;;11.00;99.90;;;;;;4155955;28;20037;-61
2024/03/09 08:04:24;;;;;;;19.05;11.35;;;11.20;99.90;;;;;;4151283;28;20498;-61
2024/03/09 08:06:25;;;;;;;20.48;12.73;;;11.30;99.90;;;;;;4148771;28;20095;-60
2024/03/09 08:08:25;;;;;;;19.80;12.20;;;11.30;99.90;;;;;;4153326;28;20386;-61
2024/03/09 08:10:26;;;;;;;21.40;12.30;;;11.30;99.90;;;;;;4152854;28;20033;-61
2024/03/09 08:12:27;;;;;;;17.92;11.85;;;11.40;99.90;;;;;;4156030;28;20069;-61
2024/03/09 08:14:33;;;;;;;18.20;11.77;;;11.50;99.90;;;;;;4155844;28;20120;-61
2024/03/09 08:16:34;;;;;;;18.50;11.77;;;11.40;99.90;;;;;;4153728;28;20556;-61
2024/03/09 08:18:36;;;;;;;18.75;12.35;;;11.30;99.90;;;;;;4154037;28;20041;-60
2024/03/09 08:20:38;;;;;;;20.40;11.70;;;11.60;99.90;;;;;;4151166;28;20037;-61
2024/03/09 08:22:43;;;;;;;17.42;10.95;;;11.40;99.90;;;;;;4156641;28;20033;-60
2024/03/09 08:24:43;;;;;;;16.98;10.45;;;11.70;99.90;;;;;;4155135;28;20045;-57
2024/03/09 08:26:45;;;;;;;18.67;11.57;;;11.80;99.90;;;;;;4152283;28;20099;-57
2024/03/09 08:28:46;;;;;;;17.75;11.38;;;11.80;99.90;;;;;;4150204;28;20042;-58
2024/03/09 08:30:47;;;;;;;17.83;11.10;;;12.00;99.90;;;;;;4150664;28;20532;-57
2024/03/09 08:32:52;;;;;;;15.75;10.48;;;12.00;99.90;;;;;;4156235;28;20064;-57
2024/03/09 08:34:53;;;;;;;16.33;10.98;;;12.10;99.90;;;;;;4154578;28;20029;-58
2024/03/09 08:36:54;;;;;;;16.48;11.23;;;12.10;99.90;;;;;;4152862;28;20095;-61
2024/03/09 08:38:54;;;;;;;18.23;10.95;;;12.10;99.90;;;;;;4154271;28;20403;-58
2024/03/09 08:40:55;;;;;;;18.60;11.50;;;12.10;99.90;;;;;;4153325;28;20707;-58
2024/03/09 08:42:58;;;;;;;20.42;12.50;;;12.20;99.90;;;;;;4155323;28;20054;-58
2024/03/09 08:44:58;;;;;;;17.00;11.43;;;12.20;99.90;;;;;;4154173;28;20045;-57
2024/03/09 08:46:59;;;;;;;19.15;11.25;;;12.00;99.90;;;;;;4153331;28;20391;-59
2024/03/09 08:49:00;;;;;;;16.48;10.60;;;12.10;99.90;;;;;;4154780;28;20362;-58
2024/03/09 08:51:01;;;;;;;18.80;10.73;;;12.20;99.90;;;;;;4154651;28;20105;-58
2024/03/09 08:53:02;;;;;;;18.85;11.50;;;12.30;99.90;;;;;;4155037;28;20045;-57
2024/03/09 08:55:03;;;;;;;16.90;10.73;;;12.10;99.90;;;;;;4154598;28;20052;-58
2024/03/09 08:57:04;;;;;;;17.10;11.23;;;12.30;99.90;;;;;;4152896;28;20037;-56
2024/03/09 08:59:04;;;;;;;16.77;10.55;;;12.40;99.90;;;;;;4153208;28;20112;-57
2024/03/09 09:01:05;;;;;;;16.92;10.75;;;12.50;99.90;;;;;;4157907;28;20033;-58
2024/03/09 09:03:06;;;;;;;18.30;11.32;;;12.50;99.90;;;;;;4156766;28;20045;-58
2024/03/09 09:05:13;;;;;;;18.40;11.80;;;12.60;99.90;;;;;;4156448;28;20045;-59
2024/03/09 09:07:15;;;;;;;17.90;11.25;;;12.70;99.90;;;;;;4156824;28;20064;-56
2024/03/09 09:09:24;;;;;;;18.33;11.83;;;12.60;99.90;;;;;;4153292;28;20470;-58
2024/03/09 09:11:28;;;;;;;20.58;12.70;;;12.70;99.90;;;;;;4156002;28;20099;-57
2024/03/09 09:13:28;;;;;;;17.90;11.73;;;12.50;99.90;;;;;;4146411;28;20153;-58
2024/03/09 09:15:29;;;;;;;21.80;13.15;;;12.50;99.90;;;;;;4150845;28;20033;-58
2024/03/09 09:17:29;;;;;;;18.52;11.52;;;12.50;99.90;;;;;;4148670;28;20033;-59
2024/03/09 09:19:31;;;;;;;18.73;11.88;;;12.50;99.90;;;;;;4154821;28;20038;-58
2024/03/09 09:21:34;;;;;;;19.50;12.13;;;12.50;99.90;;;;;;4153168;28;20025;-57
2024/03/09 09:23:35;;;;;;;17.85;11.57;;;12.60;99.90;;;;;;4146577;28;20517;-58
2024/03/09 09:25:41;;;;;;;21.25;13.23;;;12.60;99.90;;;;;;4151715;28;20033;-58
2024/03/09 09:27:43;;;;;;;19.40;11.38;;;12.70;99.90;;;;;;4153052;28;20494;-57
2024/03/09 09:29:44;;;;;;;21.75;11.60;;;12.80;99.90;;;;;;4159744;28;20109;-56
2024/03/09 09:31:44;;;;;;;19.30;12.27;;;12.80;99.90;;;;;;4156966;28;20092;-57
2024/03/09 09:33:45;;;;;;;18.92;12.48;;;12.80;99.90;;;;;;4157475;28;20041;-62
2024/03/09 09:35:46;;;;;;;17.52;11.20;;;12.80;99.90;;;;;;4149206;28;20505;-62
2024/03/09 09:37:46;;;;;;;17.98;11.23;;;12.90;99.90;;;;;;4156418;28;20100;-62
2024/03/09 09:39:49;;;;;;;17.65;10.98;;;12.90;99.90;;;;;;4148110;28;20033;-62
2024/03/09 09:41:54;;;;;;;17.27;10.88;;;12.90;99.90;;;;;;4150071;28;20037;-62
2024/03/09 09:43:58;;;;;;;16.05;10.40;;;12.90;99.90;;;;;;4149687;28;20037;-63
2024/03/09 09:46:00;;;;;;;17.15;11.48;;;12.90;99.90;;;;;;4152409;28;20041;-63
2024/03/09 09:48:01;;;;;;;18.03;12.17;;;12.90;99.90;;;;;;4149508;28;20510;-63
2024/03/09 09:50:03;;;;;;;16.55;11.05;;;12.80;99.90;;;;;;4148861;28;20054;-62
2024/03/09 09:52:04;;;;;;;18.67;11.17;;;12.60;99.90;;;;;;4153536;28;20107;-63
2024/03/09 09:54:07;;;;;;;19.58;11.30;;;12.60;99.90;;;;;;4155706;28;20037;-63
2024/03/09 09:56:08;;;;;;;16.42;11.27;;;12.40;99.90;;;;;;4159389;28;20394;-63
2024/03/09 09:58:09;;;;;;;17.77;11.32;;;12.40;99.90;;;;;;4158445;28;20030;-63
2024/03/09 10:00:13;;;;;;;19.20;10.90;;;12.40;99.90;;;;;;4158048;28;20108;-63
2024/03/09 10:05:10;;;;;;;17.80;11.00;;;12.40;99.90;;;;;;4178716;27;20995;-66
2024/03/09 10:07:11;;;;;;;18.55;12.20;;;12.40;99.90;;;;;;4174498;28;20041;-64
2024/03/09 10:09:27;;;;;;;18.58;11.93;;;12.30;99.90;;;;;;4174985;28;20037;-64
2024/03/09 10:11:31;;;;;;;18.08;11.88;;;12.40;99.90;;;;;;4170816;28;20029;-64
2024/03/09 10:13:32;;;;;;;21.77;12.38;;;12.50;99.90;;;;;;4174509;28;20033;-65
2024/03/09 10:15:35;;;;;;;18.98;11.95;;;12.50;99.90;;;;;;4155589;28;20041;-64
2024/03/09 10:17:36;;;;;;;19.15;11.45;;;12.50;99.90;;;;;;4173867;28;20037;-64
2024/03/09 10:19:37;;;;;;;18.77;11.65;;;12.50;99.90;;;;;;4174892;28;20036;-64
2024/03/09 10:21:38;;;;;;;19.15;12.15;;;12.40;99.90;;;;;;4173980;28;20045;-64
2024/03/09 10:23:39;;;;;;;18.30;11.50;;;12.30;99.90;;;;;;4174796;28;20445;-64
2024/03/09 10:25:40;;;;;;;17.77;11.32;;;12.30;99.90;;;;;;4173675;28;20029;-64
2024/03/09 10:27:41;;;;;;;18.98;11.15;;;12.30;99.90;;;;;;4173080;28;20406;-64
2024/03/09 10:29:41;;;;;;;20.45;11.77;;;12.30;99.90;;;;;;4174112;28;20037;-64